sensor_id;sensor_type;location;lat;lon;timestamp;P1;durP1;ratioP1;P2;durP2;ratioP2
69305;SDS011;56427;51.580;4.656;2023-06-24T00:01:59;7.97;;;5.00;;
69305;SDS011;56427;51.580;4.656;2023-06-24T00:04:28;7.53;;;4.30;;
69305;SDS011;56427;51.580;4.656;2023-06-24T00:06:53;7.43;;;4.83;;
69305;SDS011;56427;51.580;4.656;2023-06-24T00:09:23;8.17;;;4.70;;
69305;SDS011;56427;51.580;4.656;2023-06-24T00:11:49;7.72;;;4.40;;
69305;SDS011;56427;51.580;4.656;2023-06-24T00:14:14;9.13;;;4.73;;
69305;SDS011;56427;51.580;4.656;2023-06-24T00:16:40;9.33;;;4.57;;
69305;SDS011;56427;51.580;4.656;2023-06-24T00:19:07;9.02;;;5.22;;
69305;SDS011;56427;51.580;4.656;2023-06-24T00:21:33;7.97;;;4.22;;
69305;SDS011;56427;51.580;4.656;2023-06-24T00:23:59;6.70;;;4.53;;
69305;SDS011;56427;51.580;4.656;2023-06-24T00:26:27;8.10;;;4.32;;
69305;SDS011;56427;51.580;4.656;2023-06-24T00:28:52;7.73;;;4.00;;
69305;SDS011;56427;51.580;4.656;2023-06-24T00:31:18;5.97;;;4.00;;
69305;SDS011;56427;51.580;4.656;2023-06-24T00:33:45;7.60;;;4.50;;
69305;SDS011;56427;51.580;4.656;2023-06-24T00:36:10;8.17;;;4.47;;
69305;SDS011;56427;51.580;4.656;2023-06-24T00:38:39;7.97;;;4.93;;
69305;SDS011;56427;51.580;4.656;2023-06-24T00:41:05;14.95;;;6.75;;
69305;SDS011;56427;51.580;4.656;2023-06-24T00:43:34;10.73;;;5.80;;
69305;SDS011;56427;51.580;4.656;2023-06-24T00:46:00;11.73;;;5.57;;
69305;SDS011;56427;51.580;4.656;2023-06-24T00:48:25;9.52;;;5.30;;
69305;SDS011;56427;51.580;4.656;2023-06-24T00:50:51;9.83;;;5.37;;
69305;SDS011;56427;51.580;4.656;2023-06-24T00:53:17;7.93;;;4.70;;
69305;SDS011;56427;51.580;4.656;2023-06-24T00:55:43;8.80;;;5.53;;
69305;SDS011;56427;51.580;4.656;2023-06-24T00:58:10;11.98;;;5.55;;
69305;SDS011;56427;51.580;4.656;2023-06-24T01:00:40;11.60;;;5.63;;
69305;SDS011;56427;51.580;4.656;2023-06-24T01:03:07;10.90;;;5.40;;
69305;SDS011;56427;51.580;4.656;2023-06-24T01:05:34;10.07;;;5.67;;
69305;SDS011;56427;51.580;4.656;2023-06-24T01:08:01;12.13;;;5.95;;
69305;SDS011;56427;51.580;4.656;2023-06-24T01:10:27;11.48;;;5.90;;
69305;SDS011;56427;51.580;4.656;2023-06-24T01:12:52;10.73;;;6.20;;
69305;SDS011;56427;51.580;4.656;2023-06-24T01:15:18;10.18;;;6.25;;
69305;SDS011;56427;51.580;4.656;2023-06-24T01:17:51;9.63;;;5.93;;
69305;SDS011;56427;51.580;4.656;2023-06-24T01:20:28;11.53;;;5.87;;
69305;SDS011;56427;51.580;4.656;2023-06-24T01:31:36;11.65;;;6.45;;
69305;SDS011;56427;51.580;4.656;2023-06-24T01:40:10;12.38;;;6.07;;
69305;SDS011;56427;51.580;4.656;2023-06-24T01:42:44;12.20;;;6.22;;
69305;SDS011;56427;51.580;4.656;2023-06-24T01:45:15;12.65;;;6.95;;
69305;SDS011;56427;51.580;4.656;2023-06-24T01:47:47;14.03;;;7.07;;
69305;SDS011;56427;51.580;4.656;2023-06-24T01:50:19;14.13;;;7.70;;
69305;SDS011;56427;51.580;4.656;2023-06-24T01:52:50;13.65;;;7.20;;
69305;SDS011;56427;51.580;4.656;2023-06-24T01:55:20;13.63;;;7.03;;
69305;SDS011;56427;51.580;4.656;2023-06-24T01:57:50;13.27;;;7.05;;
69305;SDS011;56427;51.580;4.656;2023-06-24T02:00:21;11.93;;;6.93;;
69305;SDS011;56427;51.580;4.656;2023-06-24T02:02:49;11.15;;;6.78;;
69305;SDS011;56427;51.580;4.656;2023-06-24T02:05:16;11.95;;;6.80;;
69305;SDS011;56427;51.580;4.656;2023-06-24T02:07:44;12.20;;;6.97;;
69305;SDS011;56427;51.580;4.656;2023-06-24T02:10:11;12.13;;;6.90;;
69305;SDS011;56427;51.580;4.656;2023-06-24T02:12:37;12.47;;;7.93;;
69305;SDS011;56427;51.580;4.656;2023-06-24T02:15:04;10.73;;;6.68;;
69305;SDS011;56427;51.580;4.656;2023-06-24T02:17:32;11.27;;;7.10;;
69305;SDS011;56427;51.580;4.656;2023-06-24T02:19:58;12.83;;;7.30;;
69305;SDS011;56427;51.580;4.656;2023-06-24T02:22:24;13.18;;;7.35;;
69305;SDS011;56427;51.580;4.656;2023-06-24T02:24:50;10.30;;;6.88;;
69305;SDS011;56427;51.580;4.656;2023-06-24T02:27:16;10.57;;;6.83;;
69305;SDS011;56427;51.580;4.656;2023-06-24T02:29:42;10.00;;;6.78;;
69305;SDS011;56427;51.580;4.656;2023-06-24T02:32:08;11.82;;;7.10;;
69305;SDS011;56427;51.580;4.656;2023-06-24T02:34:34;10.05;;;6.70;;
69305;SDS011;56427;51.580;4.656;2023-06-24T02:37:00;11.13;;;6.60;;
69305;SDS011;56427;51.580;4.656;2023-06-24T02:39:25;10.27;;;6.20;;
69305;SDS011;56427;51.580;4.656;2023-06-24T02:41:51;11.68;;;6.80;;
69305;SDS011;56427;51.580;4.656;2023-06-24T02:44:16;13.10;;;7.43;;
69305;SDS011;56427;51.580;4.656;2023-06-24T02:46:42;10.93;;;6.53;;
69305;SDS011;56427;51.580;4.656;2023-06-24T02:49:09;13.40;;;7.82;;
69305;SDS011;56427;51.580;4.656;2023-06-24T02:51:37;11.55;;;7.15;;
69305;SDS011;56427;51.580;4.656;2023-06-24T02:54:04;11.05;;;7.03;;
69305;SDS011;56427;51.580;4.656;2023-06-24T02:56:30;12.60;;;6.80;;
69305;SDS011;56427;51.580;4.656;2023-06-24T02:58:56;15.40;;;7.88;;
69305;SDS011;56427;51.580;4.656;2023-06-24T03:01:21;12.87;;;7.47;;
69305;SDS011;56427;51.580;4.656;2023-06-24T03:03:53;12.38;;;7.30;;
69305;SDS011;56427;51.580;4.656;2023-06-24T03:06:19;12.90;;;7.15;;
69305;SDS011;56427;51.580;4.656;2023-06-24T03:08:45;15.30;;;7.97;;
69305;SDS011;56427;51.580;4.656;2023-06-24T03:11:14;11.30;;;7.30;;
69305;SDS011;56427;51.580;4.656;2023-06-24T03:13:40;12.90;;;8.52;;
69305;SDS011;56427;51.580;4.656;2023-06-24T03:16:06;14.43;;;8.52;;
69305;SDS011;56427;51.580;4.656;2023-06-24T03:18:37;11.60;;;7.37;;
69305;SDS011;56427;51.580;4.656;2023-06-24T03:21:06;13.40;;;8.52;;
69305;SDS011;56427;51.580;4.656;2023-06-24T03:23:31;19.57;;;9.17;;
69305;SDS011;56427;51.580;4.656;2023-06-24T03:25:57;14.73;;;8.50;;
69305;SDS011;56427;51.580;4.656;2023-06-24T03:28:22;12.33;;;7.90;;
69305;SDS011;56427;51.580;4.656;2023-06-24T03:30:48;14.25;;;7.63;;
69305;SDS011;56427;51.580;4.656;2023-06-24T03:33:13;13.07;;;8.03;;
69305;SDS011;56427;51.580;4.656;2023-06-24T03:35:41;12.15;;;8.65;;
69305;SDS011;56427;51.580;4.656;2023-06-24T03:38:07;12.43;;;8.00;;
69305;SDS011;56427;51.580;4.656;2023-06-24T03:40:33;13.52;;;7.75;;
69305;SDS011;56427;51.580;4.656;2023-06-24T03:42:58;14.97;;;8.60;;
69305;SDS011;56427;51.580;4.656;2023-06-24T03:45:23;13.27;;;8.27;;
69305;SDS011;56427;51.580;4.656;2023-06-24T03:47:49;11.87;;;7.73;;
69305;SDS011;56427;51.580;4.656;2023-06-24T03:50:14;12.03;;;8.13;;
69305;SDS011;56427;51.580;4.656;2023-06-24T03:52:39;12.90;;;7.63;;
69305;SDS011;56427;51.580;4.656;2023-06-24T03:55:05;13.87;;;8.17;;
69305;SDS011;56427;51.580;4.656;2023-06-24T03:57:30;15.30;;;8.07;;
69305;SDS011;56427;51.580;4.656;2023-06-24T03:59:56;13.93;;;8.50;;
69305;SDS011;56427;51.580;4.656;2023-06-24T04:02:21;12.50;;;7.93;;
69305;SDS011;56427;51.580;4.656;2023-06-24T04:04:47;11.77;;;8.25;;
69305;SDS011;56427;51.580;4.656;2023-06-24T04:07:16;12.60;;;8.03;;
69305;SDS011;56427;51.580;4.656;2023-06-24T04:09:53;11.52;;;7.05;;
69305;SDS011;56427;51.580;4.656;2023-06-24T04:12:19;12.85;;;7.97;;
69305;SDS011;56427;51.580;4.656;2023-06-24T04:14:45;12.10;;;7.07;;
69305;SDS011;56427;51.580;4.656;2023-06-24T04:17:10;11.15;;;7.72;;
69305;SDS011;56427;51.580;4.656;2023-06-24T04:19:36;11.93;;;7.97;;
69305;SDS011;56427;51.580;4.656;2023-06-24T04:22:01;11.23;;;7.10;;
69305;SDS011;56427;51.580;4.656;2023-06-24T04:24:26;12.40;;;7.07;;
69305;SDS011;56427;51.580;4.656;2023-06-24T04:26:52;12.53;;;8.03;;
69305;SDS011;56427;51.580;4.656;2023-06-24T04:29:17;10.37;;;7.80;;
69305;SDS011;56427;51.580;4.656;2023-06-24T04:31:42;11.55;;;7.05;;
69305;SDS011;56427;51.580;4.656;2023-06-24T04:34:08;11.57;;;7.00;;
69305;SDS011;56427;51.580;4.656;2023-06-24T04:36:33;10.60;;;7.07;;
69305;SDS011;56427;51.580;4.656;2023-06-24T04:39:00;11.30;;;7.50;;
69305;SDS011;56427;51.580;4.656;2023-06-24T04:41:25;10.80;;;6.93;;
69305;SDS011;56427;51.580;4.656;2023-06-24T04:43:51;14.23;;;6.80;;
69305;SDS011;56427;51.580;4.656;2023-06-24T04:46:16;13.03;;;7.20;;
69305;SDS011;56427;51.580;4.656;2023-06-24T04:48:41;11.77;;;7.50;;
69305;SDS011;56427;51.580;4.656;2023-06-24T04:51:07;12.15;;;7.63;;
69305;SDS011;56427;51.580;4.656;2023-06-24T04:53:32;12.60;;;7.37;;
69305;SDS011;56427;51.580;4.656;2023-06-24T04:55:58;12.30;;;7.60;;
69305;SDS011;56427;51.580;4.656;2023-06-24T04:58:24;12.40;;;7.20;;
69305;SDS011;56427;51.580;4.656;2023-06-24T05:00:49;14.33;;;8.33;;
69305;SDS011;56427;51.580;4.656;2023-06-24T05:03:14;14.07;;;7.93;;
69305;SDS011;56427;51.580;4.656;2023-06-24T05:05:40;12.37;;;8.07;;
69305;SDS011;56427;51.580;4.656;2023-06-24T05:08:05;13.00;;;7.93;;
69305;SDS011;56427;51.580;4.656;2023-06-24T05:10:31;12.17;;;7.87;;
69305;SDS011;56427;51.580;4.656;2023-06-24T05:12:56;11.13;;;7.47;;
69305;SDS011;56427;51.580;4.656;2023-06-24T05:15:21;14.47;;;7.80;;
69305;SDS011;56427;51.580;4.656;2023-06-24T05:17:47;10.60;;;7.73;;
69305;SDS011;56427;51.580;4.656;2023-06-24T05:20:15;11.82;;;8.43;;
69305;SDS011;56427;51.580;4.656;2023-06-24T05:22:42;11.45;;;7.50;;
69305;SDS011;56427;51.580;4.656;2023-06-24T05:25:08;10.27;;;7.27;;
69305;SDS011;56427;51.580;4.656;2023-06-24T05:27:37;13.73;;;7.57;;
69305;SDS011;56427;51.580;4.656;2023-06-24T05:30:02;11.18;;;7.75;;
69305;SDS011;56427;51.580;4.656;2023-06-24T05:32:28;12.23;;;7.40;;
69305;SDS011;56427;51.580;4.656;2023-06-24T05:34:56;12.23;;;7.95;;
69305;SDS011;56427;51.580;4.656;2023-06-24T05:37:21;11.30;;;7.27;;
69305;SDS011;56427;51.580;4.656;2023-06-24T05:39:47;11.10;;;8.13;;
69305;SDS011;56427;51.580;4.656;2023-06-24T05:42:12;12.47;;;8.37;;
69305;SDS011;56427;51.580;4.656;2023-06-24T05:44:37;12.10;;;8.20;;
69305;SDS011;56427;51.580;4.656;2023-06-24T05:47:03;10.93;;;7.97;;
69305;SDS011;56427;51.580;4.656;2023-06-24T05:49:28;11.17;;;7.57;;
69305;SDS011;56427;51.580;4.656;2023-06-24T05:51:54;11.43;;;7.70;;
69305;SDS011;56427;51.580;4.656;2023-06-24T05:54:19;13.43;;;8.23;;
69305;SDS011;56427;51.580;4.656;2023-06-24T05:56:44;12.73;;;8.27;;
69305;SDS011;56427;51.580;4.656;2023-06-24T05:59:10;12.20;;;7.60;;
69305;SDS011;56427;51.580;4.656;2023-06-24T06:01:35;14.63;;;9.00;;
69305;SDS011;56427;51.580;4.656;2023-06-24T06:04:00;13.87;;;7.90;;
69305;SDS011;56427;51.580;4.656;2023-06-24T06:06:29;13.05;;;7.97;;
69305;SDS011;56427;51.580;4.656;2023-06-24T06:08:54;13.13;;;8.17;;
69305;SDS011;56427;51.580;4.656;2023-06-24T06:11:20;12.77;;;8.13;;
69305;SDS011;56427;51.580;4.656;2023-06-24T06:13:45;12.35;;;7.28;;
69305;SDS011;56427;51.580;4.656;2023-06-24T06:16:10;14.23;;;8.27;;
69305;SDS011;56427;51.580;4.656;2023-06-24T06:18:36;13.53;;;8.90;;
69305;SDS011;56427;51.580;4.656;2023-06-24T06:21:01;12.67;;;8.90;;
69305;SDS011;56427;51.580;4.656;2023-06-24T06:23:26;13.30;;;8.35;;
69305;SDS011;56427;51.580;4.656;2023-06-24T06:25:52;13.77;;;8.50;;
69305;SDS011;56427;51.580;4.656;2023-06-24T06:28:17;15.00;;;9.10;;
69305;SDS011;56427;51.580;4.656;2023-06-24T06:30:43;14.93;;;10.37;;
69305;SDS011;56427;51.580;4.656;2023-06-24T06:33:08;15.02;;;10.57;;
69305;SDS011;56427;51.580;4.656;2023-06-24T06:35:34;14.07;;;9.33;;
69305;SDS011;56427;51.580;4.656;2023-06-24T06:37:59;13.33;;;10.07;;
69305;SDS011;56427;51.580;4.656;2023-06-24T06:40:25;13.70;;;8.53;;
69305;SDS011;56427;51.580;4.656;2023-06-24T06:42:52;14.32;;;8.90;;
69305;SDS011;56427;51.580;4.656;2023-06-24T06:45:18;12.73;;;8.98;;
69305;SDS011;56427;51.580;4.656;2023-06-24T06:47:43;12.75;;;9.27;;
69305;SDS011;56427;51.580;4.656;2023-06-24T06:50:09;12.70;;;9.67;;
69305;SDS011;56427;51.580;4.656;2023-06-24T06:52:34;13.70;;;10.00;;
69305;SDS011;56427;51.580;4.656;2023-06-24T06:55:03;13.77;;;10.27;;
69305;SDS011;56427;51.580;4.656;2023-06-24T06:57:28;15.43;;;9.05;;
69305;SDS011;56427;51.580;4.656;2023-06-24T06:59:55;17.10;;;11.30;;
69305;SDS011;56427;51.580;4.656;2023-06-24T07:02:21;15.88;;;11.38;;
69305;SDS011;56427;51.580;4.656;2023-06-24T07:04:49;13.52;;;10.15;;
69305;SDS011;56427;51.580;4.656;2023-06-24T07:07:16;17.73;;;11.63;;
69305;SDS011;56427;51.580;4.656;2023-06-24T07:09:41;18.50;;;10.97;;
69305;SDS011;56427;51.580;4.656;2023-06-24T07:12:11;14.48;;;10.23;;
69305;SDS011;56427;51.580;4.656;2023-06-24T07:14:38;16.75;;;11.23;;
69305;SDS011;56427;51.580;4.656;2023-06-24T07:17:03;17.03;;;10.73;;
69305;SDS011;56427;51.580;4.656;2023-06-24T07:19:29;18.42;;;11.23;;
69305;SDS011;56427;51.580;4.656;2023-06-24T07:21:54;15.93;;;10.47;;
69305;SDS011;56427;51.580;4.656;2023-06-24T07:24:20;15.67;;;11.33;;
69305;SDS011;56427;51.580;4.656;2023-06-24T07:26:45;18.87;;;10.87;;
69305;SDS011;56427;51.580;4.656;2023-06-24T07:29:10;15.40;;;10.70;;
69305;SDS011;56427;51.580;4.656;2023-06-24T07:31:36;13.70;;;10.13;;
69305;SDS011;56427;51.580;4.656;2023-06-24T07:34:02;16.25;;;10.50;;
69305;SDS011;56427;51.580;4.656;2023-06-24T07:36:27;16.52;;;10.00;;
69305;SDS011;56427;51.580;4.656;2023-06-24T07:38:53;14.20;;;10.60;;
69305;SDS011;56427;51.580;4.656;2023-06-24T07:41:18;12.73;;;10.03;;
69305;SDS011;56427;51.580;4.656;2023-06-24T07:43:43;11.97;;;8.60;;
69305;SDS011;56427;51.580;4.656;2023-06-24T07:46:09;13.33;;;8.67;;
69305;SDS011;56427;51.580;4.656;2023-06-24T07:48:34;11.05;;;8.32;;
69305;SDS011;56427;51.580;4.656;2023-06-24T07:51:00;12.70;;;8.80;;
69305;SDS011;56427;51.580;4.656;2023-06-24T07:53:28;14.65;;;9.23;;
69305;SDS011;56427;51.580;4.656;2023-06-24T07:55:53;15.20;;;10.17;;
69305;SDS011;56427;51.580;4.656;2023-06-24T07:58:19;14.07;;;9.20;;
69305;SDS011;56427;51.580;4.656;2023-06-24T08:00:44;12.63;;;8.87;;
69305;SDS011;56427;51.580;4.656;2023-06-24T08:03:10;12.63;;;9.02;;
69305;SDS011;56427;51.580;4.656;2023-06-24T08:05:36;12.50;;;9.35;;
69305;SDS011;56427;51.580;4.656;2023-06-24T08:08:03;19.77;;;9.53;;
69305;SDS011;56427;51.580;4.656;2023-06-24T08:10:29;11.48;;;8.32;;
69305;SDS011;56427;51.580;4.656;2023-06-24T08:12:55;12.63;;;8.57;;
69305;SDS011;56427;51.580;4.656;2023-06-24T08:15:20;12.43;;;8.07;;
69305;SDS011;56427;51.580;4.656;2023-06-24T08:17:52;13.00;;;8.60;;
69305;SDS011;56427;51.580;4.656;2023-06-24T08:20:19;11.68;;;8.88;;
69305;SDS011;56427;51.580;4.656;2023-06-24T08:22:47;11.45;;;8.80;;
69305;SDS011;56427;51.580;4.656;2023-06-24T08:25:13;12.20;;;7.80;;
69305;SDS011;56427;51.580;4.656;2023-06-24T08:27:38;14.07;;;8.48;;
69305;SDS011;56427;51.580;4.656;2023-06-24T08:30:05;12.07;;;8.47;;
69305;SDS011;56427;51.580;4.656;2023-06-24T08:32:31;11.55;;;7.55;;
69305;SDS011;56427;51.580;4.656;2023-06-24T08:34:56;10.87;;;8.20;;
69305;SDS011;56427;51.580;4.656;2023-06-24T08:37:21;14.53;;;8.10;;
69305;SDS011;56427;51.580;4.656;2023-06-24T08:39:47;11.07;;;8.23;;
69305;SDS011;56427;51.580;4.656;2023-06-24T08:42:12;11.97;;;8.83;;
69305;SDS011;56427;51.580;4.656;2023-06-24T08:44:38;13.43;;;8.20;;
69305;SDS011;56427;51.580;4.656;2023-06-24T08:47:03;11.73;;;9.07;;
69305;SDS011;56427;51.580;4.656;2023-06-24T08:49:29;15.48;;;9.20;;
69305;SDS011;56427;51.580;4.656;2023-06-24T08:52:08;11.93;;;8.60;;
69305;SDS011;56427;51.580;4.656;2023-06-24T08:54:38;13.85;;;8.38;;
69305;SDS011;56427;51.580;4.656;2023-06-24T08:57:06;11.70;;;8.00;;
69305;SDS011;56427;51.580;4.656;2023-06-24T08:59:35;11.75;;;8.02;;
69305;SDS011;56427;51.580;4.656;2023-06-24T09:02:02;10.77;;;8.07;;
69305;SDS011;56427;51.580;4.656;2023-06-24T09:04:27;12.53;;;8.23;;
69305;SDS011;56427;51.580;4.656;2023-06-24T09:06:52;11.30;;;8.17;;
69305;SDS011;56427;51.580;4.656;2023-06-24T09:09:18;12.57;;;9.20;;
69305;SDS011;56427;51.580;4.656;2023-06-24T09:11:50;13.93;;;8.70;;
69305;SDS011;56427;51.580;4.656;2023-06-24T09:14:19;11.17;;;7.63;;
69305;SDS011;56427;51.580;4.656;2023-06-24T09:17:18;14.48;;;9.27;;
69305;SDS011;56427;51.580;4.656;2023-06-24T09:19:36;11.75;;;7.85;;
69305;SDS011;56427;51.580;4.656;2023-06-24T09:22:03;11.33;;;8.30;;
69305;SDS011;56427;51.580;4.656;2023-06-24T09:24:32;15.50;;;8.50;;
69305;SDS011;56427;51.580;4.656;2023-06-24T09:26:58;12.40;;;9.25;;
69305;SDS011;56427;51.580;4.656;2023-06-24T09:29:27;12.50;;;9.17;;
69305;SDS011;56427;51.580;4.656;2023-06-24T09:31:56;12.40;;;8.55;;
69305;SDS011;56427;51.580;4.656;2023-06-24T09:34:23;13.45;;;8.80;;
69305;SDS011;56427;51.580;4.656;2023-06-24T09:36:52;13.00;;;9.90;;
69305;SDS011;56427;51.580;4.656;2023-06-24T09:39:19;15.02;;;9.00;;
69305;SDS011;56427;51.580;4.656;2023-06-24T09:41:50;12.43;;;9.55;;
69305;SDS011;56427;51.580;4.656;2023-06-24T09:44:16;13.63;;;8.57;;
69305;SDS011;56427;51.580;4.656;2023-06-24T09:46:44;13.55;;;9.38;;
69305;SDS011;56427;51.580;4.656;2023-06-24T09:49:09;13.33;;;8.50;;
69305;SDS011;56427;51.580;4.656;2023-06-24T09:51:37;11.77;;;7.67;;
69305;SDS011;56427;51.580;4.656;2023-06-24T09:54:05;11.27;;;8.18;;
69305;SDS011;56427;51.580;4.656;2023-06-24T09:56:42;13.25;;;8.82;;
69305;SDS011;56427;51.580;4.656;2023-06-24T09:59:11;11.55;;;6.65;;
69305;SDS011;56427;51.580;4.656;2023-06-24T10:01:39;10.07;;;6.93;;
69305;SDS011;56427;51.580;4.656;2023-06-24T10:04:06;11.13;;;6.40;;
69305;SDS011;56427;51.580;4.656;2023-06-24T10:06:32;10.20;;;7.20;;
69305;SDS011;56427;51.580;4.656;2023-06-24T10:08:59;14.52;;;6.72;;
69305;SDS011;56427;51.580;4.656;2023-06-24T10:11:25;8.37;;;6.03;;
69305;SDS011;56427;51.580;4.656;2023-06-24T10:13:51;9.32;;;6.65;;
69305;SDS011;56427;51.580;4.656;2023-06-24T10:16:17;9.68;;;5.18;;
69305;SDS011;56427;51.580;4.656;2023-06-24T10:18:43;11.30;;;5.40;;
69305;SDS011;56427;51.580;4.656;2023-06-24T10:21:10;7.90;;;5.47;;
69305;SDS011;56427;51.580;4.656;2023-06-24T10:23:40;11.00;;;4.72;;
69305;SDS011;56427;51.580;4.656;2023-06-24T10:26:07;7.80;;;4.37;;
69305;SDS011;56427;51.580;4.656;2023-06-24T10:34:07;8.30;;;4.38;;
69305;SDS011;56427;51.580;4.656;2023-06-24T10:36:54;6.85;;;4.65;;
69305;SDS011;56427;51.580;4.656;2023-06-24T10:39:37;7.67;;;4.23;;
69305;SDS011;56427;51.580;4.656;2023-06-24T10:44:54;7.63;;;3.88;;
69305;SDS011;56427;51.580;4.656;2023-06-24T10:47:23;7.25;;;3.00;;
69305;SDS011;56427;51.580;4.656;2023-06-24T10:49:50;7.32;;;3.50;;
69305;SDS011;56427;51.580;4.656;2023-06-24T10:52:18;5.00;;;3.00;;
69305;SDS011;56427;51.580;4.656;2023-06-24T10:54:45;6.53;;;3.08;;
69305;SDS011;56427;51.580;4.656;2023-06-24T10:57:11;7.67;;;4.37;;
69305;SDS011;56427;51.580;4.656;2023-06-24T10:59:40;10.30;;;4.53;;
69305;SDS011;56427;51.580;4.656;2023-06-24T11:02:14;7.68;;;5.13;;
69305;SDS011;56427;51.580;4.656;2023-06-24T11:04:48;7.68;;;4.10;;
69305;SDS011;56427;51.580;4.656;2023-06-24T11:07:14;5.88;;;3.17;;
69305;SDS011;56427;51.580;4.656;2023-06-24T11:09:47;5.27;;;3.33;;
69305;SDS011;56427;51.580;4.656;2023-06-24T11:12:13;4.55;;;3.03;;
69305;SDS011;56427;51.580;4.656;2023-06-24T11:14:38;5.93;;;3.70;;
69305;SDS011;56427;51.580;4.656;2023-06-24T11:17:05;7.10;;;4.18;;
69305;SDS011;56427;51.580;4.656;2023-06-24T11:19:30;7.35;;;3.80;;
69305;SDS011;56427;51.580;4.656;2023-06-24T11:22:00;6.78;;;4.03;;
69305;SDS011;56427;51.580;4.656;2023-06-24T11:24:26;5.77;;;3.00;;
69305;SDS011;56427;51.580;4.656;2023-06-24T11:26:54;8.02;;;3.50;;
69305;SDS011;56427;51.580;4.656;2023-06-24T11:29:20;5.07;;;3.33;;
69305;SDS011;56427;51.580;4.656;2023-06-24T11:31:47;8.57;;;5.38;;
69305;SDS011;56427;51.580;4.656;2023-06-24T11:34:13;8.13;;;5.63;;
69305;SDS011;56427;51.580;4.656;2023-06-24T11:36:38;8.53;;;4.80;;
69305;SDS011;56427;51.580;4.656;2023-06-24T11:39:03;9.73;;;4.83;;
69305;SDS011;56427;51.580;4.656;2023-06-24T11:41:29;8.67;;;5.30;;
69305;SDS011;56427;51.580;4.656;2023-06-24T11:43:54;9.10;;;5.93;;
69305;SDS011;56427;51.580;4.656;2023-06-24T11:46:26;9.00;;;6.18;;
69305;SDS011;56427;51.580;4.656;2023-06-24T11:49:04;10.93;;;6.10;;
69305;SDS011;56427;51.580;4.656;2023-06-24T11:51:30;10.77;;;7.30;;
69305;SDS011;56427;51.580;4.656;2023-06-24T11:53:58;14.33;;;7.30;;
69305;SDS011;56427;51.580;4.656;2023-06-24T11:56:37;9.70;;;6.35;;
69305;SDS011;56427;51.580;4.656;2023-06-24T11:59:04;8.25;;;6.03;;
69305;SDS011;56427;51.580;4.656;2023-06-24T12:01:42;9.47;;;5.70;;
69305;SDS011;56427;51.580;4.656;2023-06-24T12:04:11;11.95;;;7.47;;
69305;SDS011;56427;51.580;4.656;2023-06-24T12:06:41;11.07;;;7.07;;
69305;SDS011;56427;51.580;4.656;2023-06-24T12:09:08;12.95;;;8.00;;
69305;SDS011;56427;51.580;4.656;2023-06-24T12:11:34;11.43;;;7.88;;
69305;SDS011;56427;51.580;4.656;2023-06-24T12:13:59;11.53;;;7.10;;
69305;SDS011;56427;51.580;4.656;2023-06-24T12:16:24;14.07;;;7.67;;
69305;SDS011;56427;51.580;4.656;2023-06-24T12:18:51;10.18;;;7.22;;
69305;SDS011;56427;51.580;4.656;2023-06-24T12:21:17;13.60;;;8.20;;
69305;SDS011;56427;51.580;4.656;2023-06-24T12:23:42;15.63;;;8.03;;
69305;SDS011;56427;51.580;4.656;2023-06-24T12:26:07;12.20;;;7.90;;
69305;SDS011;56427;51.580;4.656;2023-06-24T12:28:33;11.53;;;6.93;;
69305;SDS011;56427;51.580;4.656;2023-06-24T12:30:58;10.30;;;7.17;;
69305;SDS011;56427;51.580;4.656;2023-06-24T12:33:23;10.30;;;7.10;;
69305;SDS011;56427;51.580;4.656;2023-06-24T12:35:49;11.70;;;6.33;;
69305;SDS011;56427;51.580;4.656;2023-06-24T12:38:14;9.77;;;5.90;;
69305;SDS011;56427;51.580;4.656;2023-06-24T12:40:41;8.73;;;5.60;;
69305;SDS011;56427;51.580;4.656;2023-06-24T12:43:06;8.73;;;5.65;;
69305;SDS011;56427;51.580;4.656;2023-06-24T12:45:32;8.93;;;5.73;;
69305;SDS011;56427;51.580;4.656;2023-06-24T12:47:57;10.55;;;5.95;;
69305;SDS011;56427;51.580;4.656;2023-06-24T12:50:24;9.20;;;6.50;;
69305;SDS011;56427;51.580;4.656;2023-06-24T12:52:49;9.13;;;5.57;;
69305;SDS011;56427;51.580;4.656;2023-06-24T12:55:14;8.77;;;6.10;;
69305;SDS011;56427;51.580;4.656;2023-06-24T12:57:40;9.40;;;5.20;;
69305;SDS011;56427;51.580;4.656;2023-06-24T13:00:05;8.27;;;5.07;;
69305;SDS011;56427;51.580;4.656;2023-06-24T13:02:31;6.40;;;4.80;;
69305;SDS011;56427;51.580;4.656;2023-06-24T13:04:57;7.60;;;4.87;;
69305;SDS011;56427;51.580;4.656;2023-06-24T13:07:22;8.23;;;5.90;;
69305;SDS011;56427;51.580;4.656;2023-06-24T13:09:48;8.53;;;5.00;;
69305;SDS011;56427;51.580;4.656;2023-06-24T13:12:13;9.77;;;6.10;;
69305;SDS011;56427;51.580;4.656;2023-06-24T13:14:39;9.23;;;5.22;;
69305;SDS011;56427;51.580;4.656;2023-06-24T13:17:04;8.37;;;5.90;;
69305;SDS011;56427;51.580;4.656;2023-06-24T13:19:30;8.40;;;5.90;;
69305;SDS011;56427;51.580;4.656;2023-06-24T13:21:55;10.02;;;6.90;;
69305;SDS011;56427;51.580;4.656;2023-06-24T13:24:20;11.47;;;6.80;;
69305;SDS011;56427;51.580;4.656;2023-06-24T13:26:46;9.87;;;7.03;;
69305;SDS011;56427;51.580;4.656;2023-06-24T13:29:11;13.57;;;7.23;;
69305;SDS011;56427;51.580;4.656;2023-06-24T13:31:37;8.00;;;6.03;;
69305;SDS011;56427;51.580;4.656;2023-06-24T13:34:02;9.57;;;6.37;;
69305;SDS011;56427;51.580;4.656;2023-06-24T13:36:33;14.48;;;8.85;;
69305;SDS011;56427;51.580;4.656;2023-06-24T13:39:00;10.77;;;7.70;;
69305;SDS011;56427;51.580;4.656;2023-06-24T13:41:29;10.70;;;7.60;;
69305;SDS011;56427;51.580;4.656;2023-06-24T13:43:57;10.57;;;6.10;;
69305;SDS011;56427;51.580;4.656;2023-06-24T13:46:29;10.98;;;7.10;;
69305;SDS011;56427;51.580;4.656;2023-06-24T13:48:55;12.02;;;7.50;;
69305;SDS011;56427;51.580;4.656;2023-06-24T13:51:22;12.43;;;7.15;;
69305;SDS011;56427;51.580;4.656;2023-06-24T13:53:48;12.13;;;7.10;;
69305;SDS011;56427;51.580;4.656;2023-06-24T13:56:16;13.48;;;8.10;;
69305;SDS011;56427;51.580;4.656;2023-06-24T13:58:43;10.77;;;6.95;;
69305;SDS011;56427;51.580;4.656;2023-06-24T14:01:08;10.45;;;7.20;;
69305;SDS011;56427;51.580;4.656;2023-06-24T14:03:34;10.53;;;7.10;;
69305;SDS011;56427;51.580;4.656;2023-06-24T14:06:02;11.25;;;6.90;;
69305;SDS011;56427;51.580;4.656;2023-06-24T14:08:28;9.68;;;6.15;;
69305;SDS011;56427;51.580;4.656;2023-06-24T14:10:54;12.23;;;7.10;;
69305;SDS011;56427;51.580;4.656;2023-06-24T14:13:20;11.55;;;6.68;;
69305;SDS011;56427;51.580;4.656;2023-06-24T14:15:46;10.43;;;6.03;;
69305;SDS011;56427;51.580;4.656;2023-06-24T14:18:11;8.57;;;6.03;;
69305;SDS011;56427;51.580;4.656;2023-06-24T14:20:36;8.23;;;5.93;;
69305;SDS011;56427;51.580;4.656;2023-06-24T14:23:02;11.07;;;7.20;;
69305;SDS011;56427;51.580;4.656;2023-06-24T14:25:29;13.20;;;6.90;;
69305;SDS011;56427;51.580;4.656;2023-06-24T14:27:54;11.83;;;7.03;;
69305;SDS011;56427;51.580;4.656;2023-06-24T14:30:19;10.80;;;6.93;;
69305;SDS011;56427;51.580;4.656;2023-06-24T14:32:45;11.57;;;7.77;;
69305;SDS011;56427;51.580;4.656;2023-06-24T14:35:10;10.33;;;6.87;;
69305;SDS011;56427;51.580;4.656;2023-06-24T14:37:36;7.63;;;5.22;;
69305;SDS011;56427;51.580;4.656;2023-06-24T14:40:01;7.10;;;4.63;;
69305;SDS011;56427;51.580;4.656;2023-06-24T14:42:27;8.40;;;5.20;;
69305;SDS011;56427;51.580;4.656;2023-06-24T14:44:55;7.82;;;5.57;;
69305;SDS011;56427;51.580;4.656;2023-06-24T14:47:20;8.27;;;5.37;;
69305;SDS011;56427;51.580;4.656;2023-06-24T14:49:46;8.05;;;4.22;;
69305;SDS011;56427;51.580;4.656;2023-06-24T14:52:12;6.87;;;4.50;;
69305;SDS011;56427;51.580;4.656;2023-06-24T14:54:41;8.65;;;5.65;;
69305;SDS011;56427;51.580;4.656;2023-06-24T14:57:06;7.88;;;4.65;;